Pagrindinis puslapis
METAR-TAF:

METAR-TAF

Oro uostai :

Sianas, Kinija

platuma: 34-26N, ilguma: 108-45E, Aukštis: 479 m

Dabartinis oras

Ataskaita buvo paskelbta 10 minutes, ne 22:00 UTC
Vėjas 4 kt iš Vakarų/Pietvakarių, svyruoja nuo Pietų/Pietvakarių ir Vakarų
Temperatūra 0°C
Drėgmė 74%
Slėgis 1021 hPa
Matomumas: 7000 m

METAR: ZLXY 092200Z 25002MPS 210V280 7000 NSC M00/M04 Q1021 NOSIG

Laikas: 06:10 (22:10 UTC)

Prognozė

Ataskaita buvo paskelbta 7 valandos ir 2 minutes, ne 15:08 UTC
Prognozė galioja nuo 09 metu 18 UTC su 10 metu 18 UTC
Vėjas 6 kt iš Vakarų/Pietvakarių
Matomumas: 3000 m
migla

TAF: ZLXY 091508Z 0918/1018 24003MPS 3000 HZ NSC TX13/1008Z TNM04/22Z

Orai ataskaitas ir orų prognozės (METAR, TAF).

turimą stotys yra geltonos ir raudonos taškus žemėlapyje.

Perkelti pele per norėdami pamatyti stoties vardą.

Tada spustelėkite, norėdami matyti oro stebėjimo ir prognozės.

Norėdami pakeisti žemėlapį: spustelėkite ant žalios mygtukų su juodo kryžiaus žemyn,; žalią mygtuką su brūkšneliu, jei norite nutolinti; arba žalių rodyklių gretimoms žemėlapius.


METAR-TAF: